ZKPIZ NZAR-NZAA
Flight info
| Callsign | ZKPIZ |
|---|---|
| Flight time | 0h -3m |
| Altitude | 1300 |
| Route | NZAR NZAA |
| Aircraft | BN2P/L-S/L |
Departure
| Time | 2026-04-18 05:14 |
|---|---|
| Airport | Ardmore Airport (NZAR) |
Arrival
| Time | 2026-04-18 05:10 |
|---|---|
| Airport | Auckland International Airport (NZAA) |
| Time | Latitude | Longitude | Altitude | Speed | Heading |
|---|---|---|---|---|---|
| 2026-04-18 05:10 | -37.03220 | 174.97719 | 110 ft | 0 kts | 46° |
| 2026-04-18 05:10 | -37.03205 | 174.97730 | 108 ft | 8 kts | 28° |
| 2026-04-18 05:10 | -37.03162 | 174.97756 | 108 ft | 16 kts | 24° |
| 2026-04-18 05:11 | -37.03082 | 174.97705 | 109 ft | 12 kts | 315° |
| 2026-04-18 05:11 | -37.03038 | 174.97609 | 110 ft | 11 kts | 231° |
| 2026-04-18 05:11 | -37.03124 | 174.97499 | 111 ft | 24 kts | 226° |
| 2026-04-18 05:11 | -37.03243 | 174.97349 | 110 ft | 24 kts | 224° |
| 2026-04-18 05:12 | -37.03358 | 174.97204 | 109 ft | 22 kts | 224° |
| 2026-04-18 05:12 | -37.03457 | 174.97078 | 108 ft | 19 kts | 229° |
| 2026-04-18 05:12 | -37.03532 | 174.96958 | 110 ft | 13 kts | 274° |
| 2026-04-18 05:12 | -37.03493 | 174.96931 | 111 ft | 0 kts | 49° |
| 2026-04-18 05:13 | -37.03353 | 174.97105 | 122 ft | 68 kts | 43° |
| 2026-04-18 05:13 | -37.02979 | 174.97581 | 448 ft | 90 kts | 38° |
| 2026-04-18 05:14 | -37.02481 | 174.98178 | 733 ft | 112 kts | 36° |
| 2026-04-18 05:14 | -37.01964 | 174.98885 | 1026 ft | 119 kts | 53° |
| 2026-04-18 05:14 | -37.02473 | 174.99850 | 1114 ft | 157 kts | 142° |
| 2026-04-18 05:14 | -37.03540 | 175.00197 | 1091 ft | 171 kts | 201° |
| 2026-04-18 05:15 | -37.04386 | 174.99335 | 1289 ft | 152 kts | 235° |
| 2026-04-18 05:15 | -37.05101 | 174.98316 | 1362 ft | 159 kts | 240° |
| 2026-04-18 05:15 | -37.05779 | 174.97204 | 1270 ft | 165 kts | 246° |
| 2026-04-18 05:15 | -37.06434 | 174.96014 | 1236 ft | 167 kts | 243° |
| 2026-04-18 05:16 | -37.07083 | 174.94827 | 1229 ft | 165 kts | 248° |
| 2026-04-18 05:16 | -37.07659 | 174.93614 | 1273 ft | 160 kts | 250° |
| 2026-04-18 05:16 | -37.08171 | 174.92380 | 1275 ft | 158 kts | 255° |
| 2026-04-18 05:16 | -37.08572 | 174.91169 | 1416 ft | 147 kts | 261° |
| 2026-04-18 05:17 | -37.08911 | 174.89939 | 1484 ft | 148 kts | 264° |
| 2026-04-18 05:17 | -37.09191 | 174.88670 | 1449 ft | 152 kts | 267° |
| 2026-04-18 05:17 | -37.09424 | 174.87415 | 1454 ft | 147 kts | 267° |
| 2026-04-18 05:17 | -37.09555 | 174.86603 | 1469 ft | 141 kts | 271° |
| 2026-04-18 05:18 | -37.09791 | 174.84997 | 1465 ft | 138 kts | 271° |
| 2026-04-18 05:18 | -37.09876 | 174.84218 | 1487 ft | 136 kts | 275° |
| 2026-04-18 05:18 | -37.09997 | 174.82662 | 1493 ft | 136 kts | 278° |
| 2026-04-18 05:18 | -37.10038 | 174.81874 | 1523 ft | 132 kts | 279° |
| 2026-04-18 05:19 | -37.10080 | 174.80360 | 1524 ft | 130 kts | 284° |
| 2026-04-18 05:19 | -37.10063 | 174.79249 | 1578 ft | 132 kts | 276° |
| 2026-04-18 05:19 | -37.10905 | 174.78634 | 1543 ft | 168 kts | 167° |
| 2026-04-18 05:19 | -37.11384 | 174.79230 | 1632 ft | 137 kts | 90° |
| 2026-04-18 05:20 | -37.10944 | 174.80007 | 1521 ft | 108 kts | 4° |
| 2026-04-18 05:20 | -37.10313 | 174.79525 | 1425 ft | 116 kts | 321° |
| 2026-04-18 05:20 | -37.09985 | 174.78607 | 1425 ft | 129 kts | 273° |
| 2026-04-18 05:20 | -37.10814 | 174.78122 | 1380 ft | 160 kts | 158° |
| 2026-04-18 05:21 | -37.11213 | 174.79123 | 1373 ft | 122 kts | 59° |
| 2026-04-18 05:21 | -37.10574 | 174.79325 | 1246 ft | 114 kts | 338° |
| 2026-04-18 05:21 | -37.09846 | 174.78913 | 1154 ft | 114 kts | 342° |
| 2026-04-18 05:21 | -37.09090 | 174.78646 | 1125 ft | 112 kts | 349° |
| 2026-04-18 05:22 | -37.08380 | 174.78433 | 1179 ft | 98 kts | 341° |
| 2026-04-18 05:22 | -37.07836 | 174.77984 | 1210 ft | 92 kts | 327° |
| 2026-04-18 05:22 | -37.07335 | 174.77494 | 1264 ft | 91 kts | 328° |
| 2026-04-18 05:22 | -37.06841 | 174.76992 | 1315 ft | 90 kts | 323° |
| 2026-04-18 05:23 | -37.06391 | 174.76468 | 1393 ft | 89 kts | 323° |
| 2026-04-18 05:23 | -37.05861 | 174.76057 | 1412 ft | 90 kts | 340° |
| 2026-04-18 05:23 | -37.05259 | 174.75837 | 1338 ft | 91 kts | 345° |
| 2026-04-18 05:23 | -37.04721 | 174.75653 | 1255 ft | 71 kts | 346° |
| 2026-04-18 05:24 | -37.04287 | 174.75494 | 1158 ft | 61 kts | 345° |
| 2026-04-18 05:24 | -37.03847 | 174.75329 | 1085 ft | 71 kts | 345° |
| 2026-04-18 05:24 | -37.03349 | 174.75150 | 1024 ft | 78 kts | 346° |
| 2026-04-18 05:24 | -37.02809 | 174.75038 | 933 ft | 77 kts | 5° |
| 2026-04-18 05:25 | -37.02373 | 174.75289 | 732 ft | 65 kts | 34° |
| 2026-04-18 05:25 | -37.02047 | 174.75753 | 499 ft | 73 kts | 49° |
| 2026-04-18 05:25 | -37.01832 | 174.76332 | 366 ft | 72 kts | 60° |
| 2026-04-18 05:25 | -37.01677 | 174.76931 | 152 ft | 73 kts | 56° |
| 2026-04-18 05:26 | -37.01529 | 174.77471 | 46 ft | 55 kts | 55° |
| 2026-04-18 05:26 | -37.01412 | 174.77826 | 24 ft | 29 kts | 56° |
| 2026-04-18 05:26 | -37.01360 | 174.78062 | 23 ft | 28 kts | 74° |
| 2026-04-18 05:26 | -37.01294 | 174.78259 | 24 ft | 21 kts | 63° |
| 2026-04-18 05:27 | -37.01230 | 174.78386 | 22 ft | 14 kts | 59° |
| 2026-04-18 05:27 | -37.01186 | 174.78448 | 22 ft | 2 kts | 47° |
| 2026-04-18 05:27 | -37.01115 | 174.78511 | 23 ft | 22 kts | 42° |
| 2026-04-18 05:27 | -37.01012 | 174.78654 | 22 ft | 20 kts | 60° |
| 2026-04-18 05:28 | -37.00904 | 174.78946 | 23 ft | 0 kts | 69° |
| 2026-04-18 05:28 | -37.00841 | 174.79249 | 22 ft | 2 kts | 75° |
| 2026-04-18 05:28 | -37.00536 | 174.80349 | 22 ft | 1 kts | 64° |
| 2026-04-18 05:28 | -37.00439 | 174.80356 | 23 ft | 13 kts | 20° |
| 2026-04-18 05:29 | -37.00373 | 174.80444 | 22 ft | 18 kts | 16° |
| 2026-04-18 05:29 | -37.00278 | 174.80419 | 22 ft | 12 kts | 340° |
| 2026-04-18 05:29 | -37.00249 | 174.80394 | 22 ft | 2 kts | 320° |
| 2026-04-18 05:29 | -37.00243 | 174.80401 | 22 ft | 2 kts | 147° |
| 2026-04-18 05:30 | -37.00261 | 174.80497 | 22 ft | 23 kts | 88° |
| 2026-04-18 05:30 | -37.00255 | 174.80550 | 23 ft | 0 kts | 272° |